OMDB/DXB METAR and TAF weather

Enter ICAO airport designator
Station Type Date Time Source
OMDB METAR 2020/04/09 10:00 UTC NOAA

OMDB 091000Z 02007KT CAVOK 38/13 Q1009 NOSIG


Station Type Date Time Source
OMDB Decoded METAR 2020/04/09 10:00 UTC NOAA

Dubai International Airport, United Arab Emirates (OMDB) 25-15N 055-20E 5M
Apr 09, 2020 - 06:00 AM EDT / 2020.04.09 1000 UTC
Wind: from the NNE (020 degrees) at 8 MPH (7 KT):0
Visibility: greater than 7 mile(s):0
Temperature: 100 F (38 C)
Heat index: 98.2 F (36.8 C):1
Dew Point: 55 F (13 C)
Relative Humidity: 22%
Pressure (altimeter): 29.80 in. Hg (1009 hPa)
ob: OMDB 091000Z 02007KT CAVOK 38/13 Q1009 NOSIG
cycle: 10

Station Type Date Time Source
OMDB TAF 2020/04/09 06:03 UTC NOAA

TAF OMDB 090454Z 0906/1012 10007KT CAVOK
BECMG 0909/0911 34012KT
BECMG 0916/0918 10005KT
BECMG 1003/1005 18014KT PROB30 1004/1010 4000 DU
BECMG 1010/1012 34012KT

Example: see airport list